createdAt,value
2018-12-17T00:01:42.975Z,5.3
2018-12-17T00:11:42.181Z,5.2
2018-12-17T00:21:41.400Z,5.1
2018-12-17T00:31:40.607Z,5.1
2018-12-17T00:41:39.819Z,5.1
2018-12-17T00:51:39.107Z,5.1
2018-12-17T01:01:38.238Z,5.2
2018-12-17T01:11:37.460Z,5.3
2018-12-17T01:21:36.669Z,5.4
2018-12-17T01:31:35.880Z,5.4
2018-12-17T01:41:35.087Z,5.4
2018-12-17T01:51:34.298Z,5.3
2018-12-17T02:01:33.522Z,5.4
2018-12-17T02:11:32.728Z,5.5
2018-12-17T02:21:31.936Z,5.6
2018-12-17T02:31:31.146Z,5.6
2018-12-17T02:41:30.467Z,5.5
2018-12-17T02:51:29.575Z,5.4
2018-12-17T03:01:28.798Z,5.5
2018-12-17T03:11:27.995Z,5.4
2018-12-17T03:21:27.205Z,5.4
2018-12-17T03:31:26.419Z,5.3
2018-12-17T03:41:25.625Z,5.3
2018-12-17T03:51:24.841Z,5.5
2018-12-17T04:01:24.052Z,5.5
2018-12-17T04:11:23.265Z,5.6
2018-12-17T04:21:22.478Z,5.6
2018-12-17T04:31:21.690Z,5.5
2018-12-17T04:41:20.907Z,5.5
2018-12-17T04:51:20.111Z,5.4
2018-12-17T05:01:19.328Z,5.5
2018-12-17T05:11:18.544Z,5.5
2018-12-17T05:21:17.755Z,5.5
2018-12-17T05:31:16.967Z,2.2
2018-12-17T05:41:16.182Z,1.4
2018-12-17T05:51:15.457Z,0.9
2018-12-17T06:01:14.611Z,0.6
2018-12-17T06:11:13.826Z,0.6
2018-12-17T06:21:13.033Z,0.6
2018-12-17T06:31:12.242Z,0.7
2018-12-17T06:41:11.459Z,0.8
2018-12-17T06:51:10.673Z,0.9
2018-12-17T07:01:09.875Z,0.9
2018-12-17T07:11:09.077Z,0.9
2018-12-17T07:21:08.288Z,1.1
2018-12-17T07:31:07.496Z,1.2
2018-12-17T07:41:06.755Z,1.1
2018-12-17T07:51:05.926Z,1.1
2018-12-17T08:01:05.117Z,1.6
2018-12-17T08:11:04.337Z,2
2018-12-17T08:21:03.538Z,1.9
2018-12-17T08:31:02.746Z,3.4
2018-12-17T08:41:01.955Z,5.5
2018-12-17T08:51:01.164Z,5.2
2018-12-17T09:01:00.377Z,7.5
2018-12-17T09:10:59.577Z,6.4
2018-12-17T09:20:58.785Z,5.6
2018-12-17T09:30:57.990Z,4.2
2018-12-17T09:40:57.197Z,5
2018-12-17T09:50:56.412Z,4.3
2018-12-17T10:00:55.616Z,4.4
2018-12-17T10:10:54.832Z,4.3
2018-12-17T10:20:54.030Z,3.9
2018-12-17T10:30:53.233Z,4
2018-12-17T10:40:52.443Z,4.2
2018-12-17T10:50:51.647Z,4.6
2018-12-17T11:00:50.867Z,4.7
2018-12-17T11:10:50.073Z,4.5
2018-12-17T11:20:49.278Z,4.6
2018-12-17T11:30:48.489Z,4.5
2018-12-17T11:40:47.708Z,3.9
2018-12-17T11:50:46.916Z,3.4
2018-12-17T12:00:46.130Z,3.3
2018-12-17T12:10:45.340Z,2.9
2018-12-17T12:20:44.549Z,3.3
2018-12-17T12:30:43.748Z,3.2
2018-12-17T12:40:42.957Z,3.2
2018-12-17T12:50:42.169Z,3.1
2018-12-17T13:00:41.377Z,2.8
2018-12-17T13:10:40.595Z,3
2018-12-17T13:20:39.790Z,2.6
2018-12-17T13:30:39.006Z,2.6
2018-12-17T13:40:38.215Z,2.8
2018-12-17T13:50:37.416Z,2.9
2018-12-17T14:00:36.622Z,2.9
2018-12-17T14:10:35.835Z,2.8
2018-12-17T14:20:35.040Z,2.8
2018-12-17T14:30:34.243Z,2.6
2018-12-17T14:40:33.456Z,2.5
2018-12-17T14:50:32.681Z,2.5
2018-12-17T15:00:31.879Z,2.3
2018-12-17T15:10:31.090Z,2.1
2018-12-17T15:20:30.314Z,1.9
2018-12-17T15:30:29.524Z,2
2018-12-17T15:40:28.729Z,1.9
2018-12-17T15:50:27.942Z,1.9
2018-12-17T16:00:27.156Z,2.9
2018-12-17T16:10:26.373Z,4.2
2018-12-17T16:20:25.581Z,4.8
2018-12-17T16:30:24.797Z,5.2
2018-12-17T16:40:24.006Z,5.5
2018-12-17T16:50:23.217Z,5.7
2018-12-17T17:00:22.419Z,5.8
2018-12-17T17:10:21.639Z,5.9
2018-12-17T17:20:20.854Z,5.9
2018-12-17T17:30:20.064Z,6
2018-12-17T17:40:19.277Z,6.1
2018-12-17T17:50:18.488Z,6.2
2018-12-17T18:00:17.708Z,6.2
2018-12-17T18:10:16.915Z,6.3
2018-12-17T18:20:16.128Z,6.3
2018-12-17T18:30:15.345Z,6.2
2018-12-17T18:40:14.557Z,6.2
2018-12-17T18:50:13.757Z,6.3
2018-12-17T19:00:12.981Z,6.2
2018-12-17T19:10:12.181Z,6.2
2018-12-17T19:20:11.390Z,6.1
2018-12-17T19:30:10.607Z,6.1
2018-12-17T19:40:09.823Z,6.1
2018-12-17T19:50:09.040Z,6
2018-12-17T20:00:08.249Z,6
2018-12-17T20:10:07.471Z,5.9
2018-12-17T20:20:06.680Z,5.9
2018-12-17T20:30:05.960Z,5.9
2018-12-17T20:40:05.116Z,5.8
2018-12-17T20:50:04.314Z,5.8
2018-12-17T21:00:03.528Z,5.7
2018-12-17T21:10:02.741Z,5.7
2018-12-17T21:20:01.960Z,5.6
2018-12-17T21:30:01.166Z,5.6
2018-12-17T21:40:00.373Z,5.6
2018-12-17T21:49:59.585Z,5.5
2018-12-17T21:59:58.792Z,5.4
2018-12-17T22:09:58.005Z,5.5
2018-12-17T22:19:57.206Z,5.4
2018-12-17T22:29:56.422Z,5.4
2018-12-17T22:39:55.627Z,5.4
2018-12-17T22:49:54.840Z,5.4
2018-12-17T22:59:54.045Z,5.5
2018-12-17T23:09:53.251Z,5.6
2018-12-17T23:19:52.465Z,5.4
2018-12-17T23:29:51.674Z,5.4
2018-12-17T23:39:50.880Z,5.5
2018-12-17T23:49:50.085Z,5.6
2018-12-17T23:59:49.300Z,5.6
